www.cux-wetter.de
Wetterdaten: Montag, 02.02.2009
Datum Zeit Temp. A. Feuchte A. Luftdruck Regen Wind Richtung Richtung Sonnenschein Solar Taupunkt Windchill Windben
02.02.2009 00:00 -0,9 C 83 % 1014,5 hPa 0,0 l/m 25,0 km/h (4 Bft) O 85 0 min 0 W/m -3,4 C -12,9 C 25,0 km/h (4 Bft)
02.02.2009 00:05 -0,8 C 83 % 1014,5 hPa 0,0 l/m 20,1 km/h (4 Bft) O 80 0 min 0 W/m -3,3 C -10,7 C 20,1 km/h (4 Bft)
02.02.2009 00:10 -0,8 C 83 % 1014,5 hPa 0,0 l/m 26,9 km/h (4 Bft) O 85 0 min 0 W/m -3,3 C -13,5 C 26,9 km/h (4 Bft)
02.02.2009 00:15 -0,8 C 83 % 1014,5 hPa 0,0 l/m 27,8 km/h (5 Bft) O 85 0 min 0 W/m -3,3 C -13,8 C 27,8 km/h (5 Bft)
02.02.2009 00:20 -0,8 C 83 % 1014,5 hPa 0,0 l/m 25,6 km/h (4 Bft) O 85 0 min 0 W/m -3,3 C -13,0 C 25,6 km/h (4 Bft)
02.02.2009 00:25 -0,8 C 83 % 1014,5 hPa 0,0 l/m 26,4 km/h (4 Bft) O-NO 75 0 min 0 W/m -3,3 C -13,3 C 26,4 km/h (4 Bft)
02.02.2009 00:30 -0,8 C 83 % 1014,5 hPa 0,0 l/m 28,1 km/h (5 Bft) O 95 0 min 0 W/m -3,3 C -13,9 C 28,1 km/h (5 Bft)
02.02.2009 00:35 -0,8 C 82 % 1013,5 hPa 0,0 l/m 27,2 km/h (5 Bft) O 90 0 min 0 W/m -3,5 C -13,6 C 27,2 km/h (5 Bft)
02.02.2009 00:40 -0,7 C 82 % 1013,5 hPa 0,0 l/m 31,8 km/h (5 Bft) O 80 0 min 0 W/m -3,4 C -14,9 C 31,8 km/h (5 Bft)
02.02.2009 00:45 -0,7 C 82 % 1013,5 hPa 0,0 l/m 31,7 km/h (5 Bft) O 80 0 min 0 W/m -3,4 C -14,9 C 31,7 km/h (5 Bft)
02.02.2009 00:50 -0,7 C 82 % 1013,5 hPa 0,0 l/m 25,5 km/h (4 Bft) O 80 0 min 0 W/m -3,4 C -12,9 C 25,5 km/h (4 Bft)
02.02.2009 00:55 -0,7 C 82 % 1013,5 hPa 0,0 l/m 23,8 km/h (4 Bft) O-NO 75 0 min 0 W/m -3,4 C -12,2 C 23,8 km/h (4 Bft)
02.02.2009 01:00 -0,6 C 82 % 1013,5 hPa 0,0 l/m 25,8 km/h (4 Bft) O 80 0 min 0 W/m -3,3 C -12,8 C 25,8 km/h (4 Bft)
02.02.2009 01:05 -0,7 C 81 % 1013,5 hPa 0,0 l/m 32,0 km/h (5 Bft) O 90 0 min 0 W/m -3,5 C -15,0 C 32,0 km/h (5 Bft)
02.02.2009 01:10 -0,6 C 81 % 1013,5 hPa 0,0 l/m 26,3 km/h (4 Bft) O 80 0 min 0 W/m -3,4 C -13,0 C 26,3 km/h (4 Bft)
02.02.2009 01:15 -0,6 C 81 % 1013,5 hPa 0,0 l/m 38,2 km/h (6 Bft) O-NO 75 0 min 0 W/m -3,4 C -16,4 C 38,2 km/h (6 Bft)
02.02.2009 01:20 -0,6 C 81 % 1013,5 hPa 0,0 l/m 23,8 km/h (4 Bft) O 100 0 min 0 W/m -3,4 C -12,1 C 23,8 km/h (4 Bft)
02.02.2009 01:25 -0,6 C 81 % 1013,5 hPa 0,0 l/m 25,8 km/h (4 Bft) O 80 0 min 0 W/m -3,4 C -12,8 C 25,8 km/h (4 Bft)
02.02.2009 01:30 -0,6 C 81 % 1013,5 hPa 0,0 l/m 27,4 km/h (5 Bft) O 90 0 min 0 W/m -3,4 C -13,4 C 27,4 km/h (5 Bft)
02.02.2009 01:35 -0,6 C 80 % 1013,5 hPa 0,0 l/m 31,0 km/h (5 Bft) O 85 0 min 0 W/m -3,6 C -14,6 C 31,0 km/h (5 Bft)
02.02.2009 01:40 -0,6 C 80 % 1013,5 hPa 0,0 l/m 28,3 km/h (5 Bft) O 85 0 min 0 W/m -3,6 C -13,7 C 28,3 km/h (5 Bft)
02.02.2009 01:45 -0,6 C 80 % 1013,5 hPa 0,0 l/m 31,5 km/h (5 Bft) O-NO 70 0 min 0 W/m -3,6 C -14,7 C 31,5 km/h (5 Bft)
02.02.2009 01:50 -0,6 C 80 % 1013,5 hPa 0,0 l/m 24,5 km/h (4 Bft) O 80 0 min 0 W/m -3,6 C -12,3 C 24,5 km/h (4 Bft)
02.02.2009 01:55 -0,6 C 80 % 1013,5 hPa 0,0 l/m 24,3 km/h (4 Bft) O-NO 70 0 min 0 W/m -3,6 C -12,3 C 24,3 km/h (4 Bft)
02.02.2009 02:00 -0,6 C 80 % 1013,5 hPa 0,0 l/m 23,5 km/h (4 Bft) O 90 0 min 0 W/m -3,6 C -11,9 C 23,5 km/h (4 Bft)
02.02.2009 02:05 -0,6 C 80 % 1012,5 hPa 0,0 l/m 25,3 km/h (4 Bft) O 95 0 min 0 W/m -3,6 C -12,6 C 25,3 km/h (4 Bft)
02.02.2009 02:10 -0,5 C 79 % 1012,5 hPa 0,0 l/m 18,3 km/h (3 Bft) O-NO 75 0 min 0 W/m -3,7 C -9,4 C 18,3 km/h (3 Bft)
02.02.2009 02:15 -0,5 C 79 % 1012,5 hPa 0,0 l/m 24,1 km/h (4 Bft) O-NO 75 0 min 0 W/m -3,7 C -12,0 C 24,1 km/h (4 Bft)
02.02.2009 02:20 -0,5 C 79 % 1012,5 hPa 0,0 l/m 26,2 km/h (4 Bft) O 85 0 min 0 W/m -3,7 C -12,8 C 26,2 km/h (4 Bft)
02.02.2009 02:25 -0,5 C 80 % 1012,5 hPa 0,0 l/m 31,0 km/h (5 Bft) O-NO 70 0 min 0 W/m -3,5 C -14,4 C 31,0 km/h (5 Bft)
02.02.2009 02:30 -0,5 C 80 % 1012,5 hPa 0,0 l/m 28,1 km/h (5 Bft) O 90 0 min 0 W/m -3,5 C -13,5 C 28,1 km/h (5 Bft)
02.02.2009 02:35 -0,5 C 80 % 1012,5 hPa 0,0 l/m 21,0 km/h (4 Bft) O 95 0 min 0 W/m -3,5 C -10,7 C 21,0 km/h (4 Bft)
02.02.2009 02:40 -0,5 C 80 % 1012,5 hPa 0,0 l/m 40,3 km/h (6 Bft) O 90 0 min 0 W/m -3,5 C -16,7 C 40,3 km/h (6 Bft)
02.02.2009 02:45 -0,6 C 80 % 1012,5 hPa 0,0 l/m 29,5 km/h (5 Bft) O 80 0 min 0 W/m -3,6 C -14,1 C 29,5 km/h (5 Bft)
02.02.2009 02:50 -0,6 C 80 % 1012,5 hPa 0,0 l/m 30,8 km/h (5 Bft) O 85 0 min 0 W/m -3,6 C -14,5 C 30,8 km/h (5 Bft)
02.02.2009 02:55 -0,6 C 80 % 1012,5 hPa 0,0 l/m 22,5 km/h (4 Bft) O 80 0 min 0 W/m -3,6 C -11,5 C 22,5 km/h (4 Bft)
02.02.2009 03:00 -0,6 C 80 % 1012,5 hPa 0,0 l/m 20,1 km/h (4 Bft) O 85 0 min 0 W/m -3,6 C -10,5 C 20,1 km/h (4 Bft)
02.02.2009 03:05 -0,6 C 81 % 1012,5 hPa 0,0 l/m 23,6 km/h (4 Bft) O 85 0 min 0 W/m -3,4 C -12,0 C 23,6 km/h (4 Bft)
02.02.2009 03:10 -0,6 C 81 % 1012,5 hPa 0,0 l/m 32,5 km/h (5 Bft) O 85 0 min 0 W/m -3,4 C -15,0 C 32,5 km/h (5 Bft)
02.02.2009 03:15 -0,6 C 82 % 1012,5 hPa 0,0 l/m 27,5 km/h (5 Bft) O 85 0 min 0 W/m -3,3 C -13,4 C 27,5 km/h (5 Bft)
02.02.2009 03:20 -0,7 C 82 % 1012,5 hPa 0,0 l/m 32,1 km/h (5 Bft) O 85 0 min 0 W/m -3,4 C -15,0 C 32,1 km/h (5 Bft)
02.02.2009 03:25 -0,6 C 82 % 1012,5 hPa 0,0 l/m 28,7 km/h (5 Bft) O-NO 70 0 min 0 W/m -3,3 C -13,8 C 28,7 km/h (5 Bft)
02.02.2009 03:30 -0,7 C 82 % 1012,5 hPa 0,0 l/m 23,6 km/h (4 Bft) O 95 0 min 0 W/m -3,4 C -12,1 C 23,6 km/h (4 Bft)
02.02.2009 03:35 -0,7 C 83 % 1012,5 hPa 0,0 l/m 32,3 km/h (5 Bft) O-SO 105 0 min 0 W/m -3,2 C -15,1 C 32,3 km/h (5 Bft)
02.02.2009 03:40 -0,7 C 83 % 1012,5 hPa 0,0 l/m 29,6 km/h (5 Bft) O 85 0 min 0 W/m -3,2 C -14,3 C 29,6 km/h (5 Bft)
02.02.2009 03:45 -0,7 C 83 % 1012,5 hPa 0,0 l/m 28,1 km/h (5 Bft) O 100 0 min 0 W/m -3,2 C -13,8 C 28,1 km/h (5 Bft)
02.02.2009 03:50 -0,8 C 84 % 1012,5 hPa 0,0 l/m 31,9 km/h (5 Bft) O 80 0 min 0 W/m -3,2 C -15,1 C 31,9 km/h (5 Bft)
02.02.2009 03:55 -0,8 C 84 % 1012,5 hPa 0,0 l/m 27,9 km/h (5 Bft) O 90 0 min 0 W/m -3,2 C -13,8 C 27,9 km/h (5 Bft)
02.02.2009 04:00 -0,8 C 85 % 1012,5 hPa 0,0 l/m 30,3 km/h (5 Bft) O 85 0 min 0 W/m -3,0 C -14,6 C 30,3 km/h (5 Bft)
02.02.2009 04:05 -0,9 C 85 % 1012,5 hPa 0,0 l/m 21,4 km/h (4 Bft) O-NO 75 0 min 0 W/m -3,1 C -11,4 C 21,4 km/h (4 Bft)
02.02.2009 04:10 -0,8 C 85 % 1011,5 hPa 0,0 l/m 24,8 km/h (4 Bft) O 80 0 min 0 W/m -3,0 C -12,7 C 24,8 km/h (4 Bft)
02.02.2009 04:15 -0,8 C 84 % 1011,5 hPa 0,0 l/m 25,4 km/h (4 Bft) O-NO 70 0 min 0 W/m -3,2 C -13,0 C 25,4 km/h (4 Bft)
02.02.2009 04:20 -0,7 C 84 % 1011,5 hPa 0,0 l/m 34,5 km/h (5 Bft) O 80 0 min 0 W/m -3,1 C -15,7 C 34,5 km/h (5 Bft)
02.02.2009 04:25 -0,7 C 83 % 1011,5 hPa 0,0 l/m 27,1 km/h (5 Bft) O 95 0 min 0 W/m -3,2 C -13,4 C 27,1 km/h (5 Bft)
02.02.2009 04:30 -0,7 C 83 % 1011,5 hPa 0,0 l/m 27,0 km/h (5 Bft) O 100 0 min 0 W/m -3,2 C -13,4 C 27,0 km/h (5 Bft)
02.02.2009 04:35 -0,6 C 82 % 1011,5 hPa 0,0 l/m 29,4 km/h (5 Bft) O 95 0 min 0 W/m -3,3 C -14,1 C 29,4 km/h (5 Bft)
02.02.2009 04:40 -0,6 C 82 % 1011,5 hPa 0,0 l/m 29,6 km/h (5 Bft) O 80 0 min 0 W/m -3,3 C -14,1 C 29,6 km/h (5 Bft)
02.02.2009 04:45 -0,6 C 82 % 1011,5 hPa 0,0 l/m 38,0 km/h (6 Bft) O 90 0 min 0 W/m -3,3 C -16,4 C 38,0 km/h (6 Bft)
02.02.2009 04:50 -0,5 C 82 % 1011,5 hPa 0,0 l/m 30,4 km/h (5 Bft) O-NO 75 0 min 0 W/m -3,2 C -14,2 C 30,4 km/h (5 Bft)
02.02.2009 04:55 -0,4 C 82 % 1011,5 hPa 0,0 l/m 25,9 km/h (4 Bft) O 90 0 min 0 W/m -3,1 C -12,6 C 25,9 km/h (4 Bft)
02.02.2009 05:00 -0,4 C 82 % 1011,5 hPa 0,0 l/m 30,9 km/h (5 Bft) O 90 0 min 0 W/m -3,1 C -14,2 C 30,9 km/h (5 Bft)
02.02.2009 05:06 -0,4 C 82 % 1011,5 hPa 0,0 l/m 33,0 km/h (5 Bft) O 100 0 min 0 W/m -3,1 C -14,8 C 33,0 km/h (5 Bft)
02.02.2009 05:10 -0,4 C 82 % 1011,5 hPa 0,0 l/m 26,8 km/h (4 Bft) O 95 0 min 0 W/m -3,1 C -12,9 C 26,8 km/h (4 Bft)
02.02.2009 05:15 -0,4 C 82 % 1011,5 hPa 0,0 l/m 33,0 km/h (5 Bft) O 95 0 min 0 W/m -3,1 C -14,8 C 33,0 km/h (5 Bft)
02.02.2009 05:20 -0,4 C 82 % 1011,5 hPa 0,0 l/m 31,4 km/h (5 Bft) O-SO 115 0 min 0 W/m -3,1 C -14,4 C 31,4 km/h (5 Bft)
02.02.2009 05:25 -0,4 C 82 % 1011,5 hPa 0,0 l/m 36,0 km/h (5 Bft) O 90 0 min 0 W/m -3,1 C -15,6 C 36,0 km/h (5 Bft)
02.02.2009 05:30 -0,4 C 81 % 1011,5 hPa 0,0 l/m 31,8 km/h (5 Bft) O 90 0 min 0 W/m -3,3 C -14,5 C 31,8 km/h (5 Bft)
02.02.2009 05:35 -0,4 C 81 % 1011,5 hPa 0,0 l/m 33,7 km/h (5 Bft) O 90 0 min 0 W/m -3,3 C -15,0 C 33,7 km/h (5 Bft)
02.02.2009 05:40 -0,4 C 81 % 1010,5 hPa 0,0 l/m 37,5 km/h (5 Bft) O 100 0 min 0 W/m -3,3 C -16,0 C 37,5 km/h (5 Bft)
02.02.2009 05:45 -0,4 C 82 % 1010,5 hPa 0,0 l/m 24,6 km/h (4 Bft) O-NO 75 0 min 0 W/m -3,1 C -12,1 C 24,6 km/h (4 Bft)
02.02.2009 05:50 -0,4 C 81 % 1010,5 hPa 0,0 l/m 34,8 km/h (5 Bft) O 80 0 min 0 W/m -3,3 C -15,3 C 34,8 km/h (5 Bft)
02.02.2009 05:56 -0,4 C 81 % 1010,5 hPa 0,0 l/m 33,7 km/h (5 Bft) O 95 0 min 0 W/m -3,3 C -15,0 C 33,7 km/h (5 Bft)
02.02.2009 06:00 -0,4 C 81 % 1010,5 hPa 0,0 l/m 35,4 km/h (5 Bft) O 90 0 min 0 W/m -3,3 C -15,5 C 35,4 km/h (5 Bft)
02.02.2009 06:05 -0,3 C 81 % 1010,5 hPa 0,0 l/m 28,5 km/h (5 Bft) O 95 0 min 0 W/m -3,2 C -13,4 C 28,5 km/h (5 Bft)
02.02.2009 06:10 -0,3 C 81 % 1010,5 hPa 0,0 l/m 29,6 km/h (5 Bft) O 90 0 min 0 W/m -3,2 C -13,7 C 29,6 km/h (5 Bft)
02.02.2009 06:15 -0,3 C 81 % 1010,5 hPa 0,0 l/m 35,3 km/h (5 Bft) O-SO 110 0 min 0 W/m -3,2 C -15,3 C 35,3 km/h (5 Bft)
02.02.2009 06:20 -0,3 C 81 % 1010,5 hPa 0,0 l/m 32,4 km/h (5 Bft) O 95 0 min 0 W/m -3,2 C -14,5 C 32,4 km/h (5 Bft)
02.02.2009 06:25 -0,3 C 81 % 1010,5 hPa 0,0 l/m 30,5 km/h (5 Bft) O 95 0 min 0 W/m -3,2 C -14,0 C 30,5 km/h (5 Bft)
02.02.2009 06:30 -0,2 C 81 % 1010,5 hPa 0,0 l/m 33,2 km/h (5 Bft) O-SO 105 0 min 0 W/m -3,1 C -14,6 C 33,2 km/h (5 Bft)
02.02.2009 06:35 -0,2 C 81 % 1010,5 hPa 0,0 l/m 26,5 km/h (4 Bft) O 100 0 min 0 W/m -3,1 C -12,5 C 26,5 km/h (4 Bft)
02.02.2009 06:40 -0,3 C 81 % 1010,5 hPa 0,0 l/m 26,6 km/h (4 Bft) O 95 0 min 0 W/m -3,2 C -12,7 C 26,6 km/h (4 Bft)
02.02.2009 06:45 -0,3 C 82 % 1010,5 hPa 0,0 l/m 36,1 km/h (5 Bft) O 80 0 min 0 W/m -3,0 C -15,5 C 36,1 km/h (5 Bft)
02.02.2009 06:50 -0,3 C 81 % 1010,5 hPa 0,0 l/m 29,1 km/h (5 Bft) O 95 0 min 0 W/m -3,2 C -13,5 C 29,1 km/h (5 Bft)
02.02.2009 06:55 -0,3 C 82 % 1010,5 hPa 0,0 l/m 25,8 km/h (4 Bft) O 95 0 min 0 W/m -3,0 C -12,4 C 25,8 km/h (4 Bft)
02.02.2009 07:00 -0,3 C 82 % 1010,5 hPa 0,0 l/m 31,9 km/h (5 Bft) O 95 0 min 0 W/m -3,0 C -14,4 C 31,9 km/h (5 Bft)
02.02.2009 07:05 -0,2 C 82 % 1010,5 hPa 0,0 l/m 24,0 km/h (4 Bft) O-NO 70 0 min 0 W/m -2,9 C -11,6 C 24,0 km/h (4 Bft)
02.02.2009 07:10 -0,2 C 82 % 1010,5 hPa 0,0 l/m 26,1 km/h (4 Bft) O-SO 115 0 min 0 W/m -2,9 C -12,4 C 26,1 km/h (4 Bft)
02.02.2009 07:15 -0,2 C 82 % 1010,5 hPa 0,0 l/m 25,8 km/h (4 Bft) O 80 0 min 0 W/m -2,9 C -12,3 C 25,8 km/h (4 Bft)
02.02.2009 07:20 -0,3 C 82 % 1010,5 hPa 0,0 l/m 26,7 km/h (4 Bft) O-SO 110 0 min 0 W/m -3,0 C -12,7 C 26,7 km/h (4 Bft)
02.02.2009 07:25 -0,3 C 82 % 1010,5 hPa 0,0 l/m 33,2 km/h (5 Bft) O-SO 105 0 min 0 W/m -3,0 C -14,8 C 33,2 km/h (5 Bft)
02.02.2009 07:30 -0,3 C 82 % 1010,5 hPa 0,0 l/m 25,0 km/h (4 Bft) O 95 0 min 0 W/m -3,0 C -12,1 C 25,0 km/h (4 Bft)
02.02.2009 07:35 -0,3 C 82 % 1010,5 hPa 0,0 l/m 28,8 km/h (5 Bft) O 90 0 min 0 W/m -3,0 C -13,5 C 28,8 km/h (5 Bft)
02.02.2009 07:41 -0,3 C 82 % 1010,5 hPa 0,0 l/m 33,7 km/h (5 Bft) O 90 0 min 0 W/m -3,0 C -14,9 C 33,7 km/h (5 Bft)
02.02.2009 07:45 -0,3 C 82 % 1010,5 hPa 0,0 l/m 30,7 km/h (5 Bft) O-SO 105 0 min 0 W/m -3,0 C -14,0 C 30,7 km/h (5 Bft)
02.02.2009 07:50 -0,3 C 82 % 1010,5 hPa 0,0 l/m 30,0 km/h (5 Bft) O 85 0 min 0 W/m -3,0 C -13,8 C 30,0 km/h (5 Bft)
02.02.2009 07:55 -0,2 C 82 % 1010,5 hPa 0,0 l/m 29,3 km/h (5 Bft) O 100 0 min 0 W/m -2,9 C -13,5 C 29,3 km/h (5 Bft)
02.02.2009 08:00 -0,2 C 82 % 1010,5 hPa 0,0 l/m 30,2 km/h (5 Bft) O 100 0 min 0 W/m -2,9 C -13,7 C 30,2 km/h (5 Bft)
02.02.2009 08:05 -0,3 C 82 % 1010,5 hPa 0,0 l/m 27,1 km/h (5 Bft) O-SO 110 0 min 0 W/m -3,0 C -12,9 C 27,1 km/h (5 Bft)
02.02.2009 08:10 -0,3 C 82 % 1010,5 hPa 0,0 l/m 24,9 km/h (4 Bft) O 95 0 min 0 W/m -3,0 C -12,1 C 24,9 km/h (4 Bft)
02.02.2009 08:15 -0,3 C 82 % 1010,5 hPa 0,0 l/m 27,8 km/h (5 Bft) O 95 0 min 0 W/m -3,0 C -13,1 C 27,8 km/h (5 Bft)
02.02.2009 08:20 -0,3 C 82 % 1010,5 hPa 0,0 l/m 30,3 km/h (5 Bft) O 80 0 min 0 W/m -3,0 C -13,9 C 30,3 km/h (5 Bft)
02.02.2009 08:25 -0,3 C 82 % 1010,5 hPa 0,0 l/m 23,5 km/h (4 Bft) O 95 0 min 0 W/m -3,0 C -11,5 C 23,5 km/h (4 Bft)
02.02.2009 08:30 -0,3 C 82 % 1010,5 hPa 0,0 l/m 31,3 km/h (5 Bft) O 95 0 min 0 W/m -3,0 C -14,2 C 31,3 km/h (5 Bft)
02.02.2009 08:35 -0,2 C 82 % 1010,5 hPa 0,0 l/m 26,8 km/h (4 Bft) O 80 0 min 0 W/m -2,9 C -12,6 C 26,8 km/h (4 Bft)
02.02.2009 08:40 -0,3 C 82 % 1010,5 hPa 0,0 l/m 29,6 km/h (5 Bft) O 100 0 min 0 W/m -3,0 C -13,7 C 29,6 km/h (5 Bft)
02.02.2009 08:45 -0,3 C 82 % 1010,5 hPa 0,0 l/m 31,0 km/h (5 Bft) O 85 0 min 0 W/m -3,0 C -14,1 C 31,0 km/h (5 Bft)
02.02.2009 08:50 -0,2 C 83 % 1010,5 hPa 0,0 l/m 16,1 km/h (3 Bft) O-SO 105 0 min 0 W/m -2,7 C -7,9 C 16,1 km/h (3 Bft)
02.02.2009 08:55 -0,2 C 83 % 1010,5 hPa 0,0 l/m 29,7 km/h (5 Bft) O 100 0 min 0 W/m -2,7 C -13,6 C 29,7 km/h (5 Bft)
02.02.2009 09:00 -0,2 C 83 % 1010,5 hPa 0,0 l/m 37,9 km/h (6 Bft) O 100 0 min 0 W/m -2,7 C -15,8 C 37,9 km/h (6 Bft)
02.02.2009 09:05 0,0 C 83 % 1009,5 hPa 0,0 l/m 28,0 km/h (5 Bft) O-SO 115 0 min 0 W/m -2,5 C -12,8 C 28,0 km/h (5 Bft)
02.02.2009 09:10 0,0 C 83 % 1009,5 hPa 0,0 l/m 32,3 km/h (5 Bft) O-SO 110 0 min 0 W/m -2,5 C -14,1 C 32,3 km/h (5 Bft)
02.02.2009 09:15 0,0 C 83 % 1009,5 hPa 0,0 l/m 15,9 km/h (3 Bft) O 95 0 min 0 W/m -2,5 C -7,5 C 15,9 km/h (3 Bft)
02.02.2009 09:20 -0,2 C 82 % 1009,5 hPa 0,0 l/m 31,1 km/h (5 Bft) O 90 0 min 0 W/m -2,9 C -14,0 C 31,1 km/h (5 Bft)
02.02.2009 09:25 -0,2 C 82 % 1009,5 hPa 0,0 l/m 30,2 km/h (5 Bft) O-SO 110 0 min 0 W/m -2,9 C -13,7 C 30,2 km/h (5 Bft)
02.02.2009 09:30 -0,2 C 82 % 1009,5 hPa 0,0 l/m 27,3 km/h (5 Bft) O 90 0 min 0 W/m -2,9 C -12,8 C 27,3 km/h (5 Bft)
02.02.2009 09:35 -0,3 C 82 % 1009,5 hPa 0,0 l/m 30,2 km/h (5 Bft) O 80 0 min 0 W/m -3,0 C -13,9 C 30,2 km/h (5 Bft)
02.02.2009 09:40 -0,2 C 82 % 1009,5 hPa 0,0 l/m 28,3 km/h (5 Bft) O-SO 115 0 min 0 W/m -2,9 C -13,1 C 28,3 km/h (5 Bft)
02.02.2009 09:45 -0,3 C 82 % 1009,5 hPa 0,0 l/m 30,6 km/h (5 Bft) O 95 0 min 0 W/m -3,0 C -14,0 C 30,6 km/h (5 Bft)
02.02.2009 09:50 -0,2 C 83 % 1009,5 hPa 0,0 l/m 30,0 km/h (5 Bft) O 95 0 min 0 W/m -2,7 C -13,7 C 30,0 km/h (5 Bft)
02.02.2009 09:55 -0,2 C 83 % 1009,5 hPa 0,0 l/m 33,1 km/h (5 Bft) O-SO 105 0 min 0 W/m -2,7 C -14,6 C 33,1 km/h (5 Bft)
02.02.2009 10:00 -0,2 C 83 % 1009,5 hPa 0,0 l/m 32,0 km/h (5 Bft) O 85 0 min 0 W/m -2,7 C -14,3 C 32,0 km/h (5 Bft)
02.02.2009 10:05 -0,2 C 83 % 1009,5 hPa 0,0 l/m 32,2 km/h (5 Bft) O 90 0 min 0 W/m -2,7 C -14,3 C 32,2 km/h (5 Bft)
02.02.2009 10:10 -0,2 C 83 % 1009,5 hPa 0,0 l/m 29,8 km/h (5 Bft) O 100 0 min 0 W/m -2,7 C -13,6 C 29,8 km/h (5 Bft)
02.02.2009 10:16 0,0 C 83 % 1009,5 hPa 0,0 l/m 35,4 km/h (5 Bft) O-SO 105 0 min 0 W/m -2,5 C -14,9 C 35,4 km/h (5 Bft)
02.02.2009 10:20 -0,2 C 82 % 1009,5 hPa 0,0 l/m 32,6 km/h (5 Bft) O-SO 110 0 min 0 W/m -2,9 C -14,4 C 32,6 km/h (5 Bft)
02.02.2009 10:25 0,1 C 83 % 1009,5 hPa 0,0 l/m 28,3 km/h (5 Bft) O 100 0 min 0 W/m -2,4 C -12,7 C 28,3 km/h (5 Bft)
02.02.2009 10:30 0,1 C 83 % 1009,5 hPa 0,0 l/m 31,1 km/h (5 Bft) O 95 0 min 0 W/m -2,4 C -13,6 C 31,1 km/h (5 Bft)
02.02.2009 10:35 0,1 C 83 % 1009,5 hPa 0,0 l/m 32,1 km/h (5 Bft) O 95 0 min 0 W/m -2,4 C -13,9 C 32,1 km/h (5 Bft)
02.02.2009 10:40 0,2 C 83 % 1009,5 hPa 0,0 l/m 28,8 km/h (5 Bft) O 100 0 min 0 W/m -2,3 C -12,8 C 28,8 km/h (5 Bft)
02.02.2009 10:45 0,2 C 83 % 1009,5 hPa 0,0 l/m 29,4 km/h (5 Bft) O-SO 105 0 min 0 W/m -2,3 C -12,9 C 29,4 km/h (5 Bft)
02.02.2009 10:50 0,2 C 83 % 1009,5 hPa 0,0 l/m 29,3 km/h (5 Bft) O-SO 115 0 min 0 W/m -2,3 C -12,9 C 29,3 km/h (5 Bft)
02.02.2009 10:55 0,3 C 83 % 1009,5 hPa 0,0 l/m 40,2 km/h (6 Bft) O 100 0 min 0 W/m -2,2 C -15,5 C 40,2 km/h (6 Bft)
02.02.2009 11:00 0,3 C 82 % 1009,5 hPa 0,0 l/m 40,3 km/h (6 Bft) O 85 0 min 0 W/m -2,4 C -15,6 C 40,3 km/h (6 Bft)
02.02.2009 11:05 0,3 C 82 % 1009,5 hPa 0,0 l/m 29,0 km/h (5 Bft) O 90 0 min 0 W/m -2,4 C -12,7 C 29,0 km/h (5 Bft)
02.02.2009 11:10 0,4 C 82 % 1009,5 hPa 0,0 l/m 26,8 km/h (4 Bft) O 95 0 min 0 W/m -2,3 C -11,8 C 26,8 km/h (4 Bft)
02.02.2009 11:15 0,5 C 82 % 1009,5 hPa 0,0 l/m 29,6 km/h (5 Bft) SO 125 0 min 0 W/m -2,2 C -12,6 C 29,6 km/h (5 Bft)
02.02.2009 11:20 0,5 C 82 % 1009,5 hPa 0,0 l/m 31,0 km/h (5 Bft) O 100 0 min 0 W/m -2,2 C -13,0 C 31,0 km/h (5 Bft)
02.02.2009 11:25 0,5 C 82 % 1009,5 hPa 0,0 l/m 31,7 km/h (5 Bft) O 100 0 min 0 W/m -2,2 C -13,2 C 31,7 km/h (5 Bft)
02.02.2009 11:30 0,5 C 82 % 1009,5 hPa 0,0 l/m 31,5 km/h (5 Bft) O-NO 75 0 min 0 W/m -2,2 C -13,1 C 31,5 km/h (5 Bft)
02.02.2009 11:35 0,5 C 82 % 1009,5 hPa 0,0 l/m 24,0 km/h (4 Bft) O 100 0 min 0 W/m -2,2 C -10,7 C 24,0 km/h (4 Bft)
02.02.2009 11:40 0,5 C 82 % 1009,5 hPa 0,0 l/m 25,2 km/h (4 Bft) O 100 0 min 0 W/m -2,2 C -11,1 C 25,2 km/h (4 Bft)
02.02.2009 11:45 0,5 C 82 % 1009,5 hPa 0,0 l/m 31,0 km/h (5 Bft) O-SO 115 0 min 0 W/m -2,2 C -13,0 C 31,0 km/h (5 Bft)
02.02.2009 11:50 0,5 C 82 % 1008,5 hPa 0,0 l/m 34,0 km/h (5 Bft) O-SO 120 0 min 0 W/m -2,2 C -13,8 C 34,0 km/h (5 Bft)
02.02.2009 11:55 0,6 C 82 % 1008,5 hPa 0,0 l/m 28,1 km/h (5 Bft) O-SO 105 0 min 0 W/m -2,1 C -12,0 C 28,1 km/h (5 Bft)
02.02.2009 12:00 0,7 C 82 % 1008,5 hPa 0,0 l/m 29,5 km/h (5 Bft) O-SO 115 0 min 0 W/m -2,0 C -12,3 C 29,5 km/h (5 Bft)
02.02.2009 12:05 0,7 C 81 % 1008,5 hPa 0,0 l/m 25,9 km/h (4 Bft) O-SO 105 0 min 0 W/m -2,2 C -11,1 C 25,9 km/h (4 Bft)
02.02.2009 12:10 0,9 C 81 % 1008,5 hPa 0,0 l/m 35,9 km/h (5 Bft) O 100 0 min 0 W/m -2,0 C -13,7 C 35,9 km/h (5 Bft)
02.02.2009 12:15 0,9 C 81 % 1008,5 hPa 0,0 l/m 34,7 km/h (5 Bft) O 100 0 min 0 W/m -2,0 C -13,4 C 34,7 km/h (5 Bft)
02.02.2009 12:20 1,1 C 81 % 1008,5 hPa 0,0 l/m 34,7 km/h (5 Bft) O 100 0 min 0 W/m -1,8 C -13,1 C 34,7 km/h (5 Bft)
02.02.2009 12:25 1,0 C 81 % 1008,5 hPa 0,0 l/m 31,6 km/h (5 Bft) O 95 0 min 0 W/m -1,9 C -12,5 C 31,6 km/h (5 Bft)
02.02.2009 12:30 1,1 C 81 % 1008,5 hPa 0,0 l/m 30,9 km/h (5 Bft) O 100 0 min 0 W/m -1,8 C -12,1 C 30,9 km/h (5 Bft)
02.02.2009 12:35 1,2 C 81 % 1008,5 hPa 0,0 l/m 20,0 km/h (4 Bft) O 100 0 min 0 W/m -1,7 C -8,1 C 20,0 km/h (4 Bft)
02.02.2009 12:40 1,1 C 81 % 1008,5 hPa 0,0 l/m 31,3 km/h (5 Bft) O 90 0 min 0 W/m -1,8 C -12,2 C 31,3 km/h (5 Bft)
02.02.2009 12:45 1,1 C 81 % 1008,5 hPa 0,0 l/m 30,4 km/h (5 Bft) O 95 0 min 0 W/m -1,8 C -12,0 C 30,4 km/h (5 Bft)
02.02.2009 12:50 1,2 C 81 % 1008,5 hPa 0,0 l/m 29,0 km/h (5 Bft) O-SO 105 0 min 0 W/m -1,7 C -11,4 C 29,0 km/h (5 Bft)
02.02.2009 12:55 1,2 C 81 % 1008,5 hPa 0,0 l/m 36,5 km/h (5 Bft) O 100 0 min 0 W/m -1,7 C -13,4 C 36,5 km/h (5 Bft)
02.02.2009 13:00 1,2 C 81 % 1007,5 hPa 0,0 l/m 24,6 km/h (4 Bft) O-SO 110 0 min 0 W/m -1,7 C -9,9 C 24,6 km/h (4 Bft)
02.02.2009 13:05 1,2 C 81 % 1007,5 hPa 0,0 l/m 27,4 km/h (5 Bft) O 95 0 min 0 W/m -1,7 C -10,9 C 27,4 km/h (5 Bft)
02.02.2009 13:10 1,2 C 81 % 1007,5 hPa 0,0 l/m 28,2 km/h (5 Bft) O 95 0 min 0 W/m -1,7 C -11,2 C 28,2 km/h (5 Bft)
02.02.2009 13:16 1,2 C 81 % 1007,5 hPa 0,0 l/m 28,6 km/h (5 Bft) O-SO 105 0 min 0 W/m -1,7 C -11,3 C 28,6 km/h (5 Bft)
02.02.2009 13:20 1,1 C 82 % 1007,5 hPa 0,0 l/m 36,2 km/h (5 Bft) O 90 0 min 0 W/m -1,6 C -13,5 C 36,2 km/h (5 Bft)
02.02.2009 13:25 1,2 C 82 % 1007,5 hPa 0,0 l/m 29,6 km/h (5 Bft) SO 125 0 min 0 W/m -1,5 C -11,6 C 29,6 km/h (5 Bft)
02.02.2009 13:30 1,2 C 82 % 1007,5 hPa 0,0 l/m 28,8 km/h (5 Bft) O-SO 110 0 min 0 W/m -1,5 C -11,4 C 28,8 km/h (5 Bft)
02.02.2009 13:35 1,3 C 82 % 1007,5 hPa 0,0 l/m 32,7 km/h (5 Bft) O 95 0 min 0 W/m -1,4 C -12,3 C 32,7 km/h (5 Bft)
02.02.2009 13:40 1,3 C 81 % 1007,5 hPa 0,0 l/m 30,8 km/h (5 Bft) O 100 0 min 0 W/m -1,6 C -11,8 C 30,8 km/h (5 Bft)
02.02.2009 13:45 1,2 C 81 % 1007,5 hPa 0,0 l/m 35,3 km/h (5 Bft) O 90 0 min 0 W/m -1,7 C -13,1 C 35,3 km/h (5 Bft)
02.02.2009 13:50 1,2 C 82 % 1007,5 hPa 0,0 l/m 24,5 km/h (4 Bft) O-SO 115 0 min 0 W/m -1,5 C -9,9 C 24,5 km/h (4 Bft)
02.02.2009 13:55 1,1 C 82 % 1007,5 hPa 0,0 l/m 34,2 km/h (5 Bft) O-SO 110 0 min 0 W/m -1,6 C -13,0 C 34,2 km/h (5 Bft)
02.02.2009 14:00 1,2 C 82 % 1007,5 hPa 0,0 l/m 31,3 km/h (5 Bft) O-SO 110 0 min 0 W/m -1,5 C -12,1 C 31,3 km/h (5 Bft)
02.02.2009 14:05 1,2 C 82 % 1007,5 hPa 0,0 l/m 27,5 km/h (5 Bft) O-SO 115 0 min 0 W/m -1,5 C -10,9 C 27,5 km/h (5 Bft)
02.02.2009 14:10 1,2 C 82 % 1007,5 hPa 0,0 l/m 31,2 km/h (5 Bft) O 100 0 min 0 W/m -1,5 C -12,1 C 31,2 km/h (5 Bft)
02.02.2009 14:15 1,2 C 82 % 1007,5 hPa 0,0 l/m 32,2 km/h (5 Bft) O 90 0 min 0 W/m -1,5 C -12,3 C 32,2 km/h (5 Bft)
02.02.2009 14:20 1,2 C 82 % 1007,5 hPa 0,0 l/m 38,4 km/h (6 Bft) O 95 0 min 0 W/m -1,5 C -13,8 C 38,4 km/h (6 Bft)
02.02.2009 14:25 1,3 C 82 % 1007,5 hPa 0,0 l/m 32,1 km/h (5 Bft) O-SO 110 0 min 0 W/m -1,4 C -12,2 C 32,1 km/h (5 Bft)
02.02.2009 14:30 1,3 C 81 % 1007,5 hPa 0,0 l/m 33,0 km/h (5 Bft) O 100 0 min 0 W/m -1,6 C -12,4 C 33,0 km/h (5 Bft)
02.02.2009 14:35 1,2 C 82 % 1007,5 hPa 0,0 l/m 27,3 km/h (5 Bft) O 100 0 min 0 W/m -1,5 C -10,9 C 27,3 km/h (5 Bft)
02.02.2009 14:40 1,2 C 82 % 1007,5 hPa 0,0 l/m 27,1 km/h (5 Bft) O-SO 105 0 min 0 W/m -1,5 C -10,8 C 27,1 km/h (5 Bft)
02.02.2009 14:45 1,3 C 82 % 1007,5 hPa 0,0 l/m 24,0 km/h (4 Bft) O-SO 110 0 min 0 W/m -1,4 C -9,6 C 24,0 km/h (4 Bft)
02.02.2009 14:50 1,2 C 82 % 1007,5 hPa 0,0 l/m 27,1 km/h (5 Bft) O-SO 105 0 min 0 W/m -1,5 C -10,8 C 27,1 km/h (5 Bft)
02.02.2009 14:55 1,2 C 82 % 1006,5 hPa 0,0 l/m 22,3 km/h (4 Bft) O 95 0 min 0 W/m -1,5 C -9,1 C 22,3 km/h (4 Bft)
02.02.2009 15:00 1,3 C 82 % 1006,5 hPa 0,0 l/m 23,4 km/h (4 Bft) O-SO 120 0 min 0 W/m -1,4 C -9,4 C 23,4 km/h (4 Bft)
02.02.2009 15:05 1,2 C 82 % 1006,5 hPa 0,0 l/m 32,6 km/h (5 Bft) O-SO 115 0 min 0 W/m -1,5 C -12,4 C 32,6 km/h (5 Bft)
02.02.2009 15:10 1,2 C 82 % 1006,5 hPa 0,0 l/m 29,5 km/h (5 Bft) O 95 0 min 0 W/m -1,5 C -11,6 C 29,5 km/h (5 Bft)
02.02.2009 15:15 1,2 C 82 % 1006,5 hPa 0,0 l/m 28,4 km/h (5 Bft) O-SO 105 0 min 0 W/m -1,5 C -11,2 C 28,4 km/h (5 Bft)
02.02.2009 15:20 1,3 C 83 % 1006,5 hPa 0,0 l/m 20,0 km/h (4 Bft) O 95 0 min 0 W/m -1,3 C -8,0 C 20,0 km/h (4 Bft)
02.02.2009 15:26 1,4 C 83 % 1006,5 hPa 0,0 l/m 22,0 km/h (4 Bft) O-SO 105 0 min 0 W/m -1,2 C -8,7 C 22,0 km/h (4 Bft)
02.02.2009 15:30 1,4 C 83 % 1006,5 hPa 0,0 l/m 29,0 km/h (5 Bft) O 95 0 min 0 W/m -1,2 C -11,1 C 29,0 km/h (5 Bft)
02.02.2009 15:35 1,4 C 83 % 1006,5 hPa 0,0 l/m 30,0 km/h (5 Bft) O-SO 110 0 min 0 W/m -1,2 C -11,4 C 30,0 km/h (5 Bft)
02.02.2009 15:40 1,4 C 82 % 1006,5 hPa 0,0 l/m 18,1 km/h (3 Bft) O 90 0 min 0 W/m -1,3 C -6,9 C 18,1 km/h (3 Bft)
02.02.2009 15:45 1,4 C 82 % 1006,5 hPa 0,0 l/m 32,7 km/h (5 Bft) O 95 0 min 0 W/m -1,3 C -12,2 C 32,7 km/h (5 Bft)
02.02.2009 15:50 1,3 C 82 % 1006,5 hPa 0,0 l/m 25,3 km/h (4 Bft) O 100 0 min 0 W/m -1,4 C -10,1 C 25,3 km/h (4 Bft)
02.02.2009 15:55 1,2 C 82 % 1006,5 hPa 0,0 l/m 21,7 km/h (4 Bft) O 95 0 min 0 W/m -1,5 C -8,8 C 21,7 km/h (4 Bft)
02.02.2009 16:00 1,2 C 83 % 1006,5 hPa 0,0 l/m 32,4 km/h (5 Bft) O-SO 105 0 min 0 W/m -1,4 C -12,4 C 32,4 km/h (5 Bft)
02.02.2009 16:05 1,2 C 83 % 1006,5 hPa 0,0 l/m 34,0 km/h (5 Bft) O 100 0 min 0 W/m -1,4 C -12,8 C 34,0 km/h (5 Bft)
02.02.2009 16:10 1,2 C 83 % 1006,5 hPa 0,0 l/m 30,5 km/h (5 Bft) O 90 0 min 0 W/m -1,4 C -11,9 C 30,5 km/h (5 Bft)
02.02.2009 16:15 1,2 C 83 % 1005,5 hPa 0,0 l/m 29,5 km/h (5 Bft) O 95 0 min 0 W/m -1,4 C -11,6 C 29,5 km/h (5 Bft)
02.02.2009 16:20 1,2 C 83 % 1005,5 hPa 0,0 l/m 32,7 km/h (5 Bft) O-SO 105 0 min 0 W/m -1,4 C -12,5 C 32,7 km/h (5 Bft)
02.02.2009 16:25 1,2 C 83 % 1005,5 hPa 0,0 l/m 37,5 km/h (5 Bft) O 80 0 min 0 W/m -1,4 C -13,6 C 37,5 km/h (5 Bft)
02.02.2009 16:30 1,2 C 83 % 1005,5 hPa 0,0 l/m 41,3 km/h (6 Bft) O 90 0 min 0 W/m -1,4 C -14,4 C 41,3 km/h (6 Bft)
02.02.2009 16:35 1,2 C 84 % 1005,5 hPa 0,0 l/m 27,3 km/h (5 Bft) O-SO 105 0 min 0 W/m -1,2 C -10,9 C 27,3 km/h (5 Bft)
02.02.2009 16:40 1,2 C 84 % 1005,5 hPa 0,0 l/m 28,8 km/h (5 Bft) O 90 0 min 0 W/m -1,2 C -11,4 C 28,8 km/h (5 Bft)
02.02.2009 16:45 1,1 C 84 % 1005,5 hPa 0,0 l/m 32,0 km/h (5 Bft) O 100 0 min 0 W/m -1,3 C -12,4 C 32,0 km/h (5 Bft)
02.02.2009 16:50 1,1 C 84 % 1005,5 hPa 0,0 l/m 27,6 km/h (5 Bft) O 100 0 min 0 W/m -1,3 C -11,1 C 27,6 km/h (5 Bft)
02.02.2009 16:55 1,1 C 84 % 1005,5 hPa 0,0 l/m 31,9 km/h (5 Bft) O 95 0 min 0 W/m -1,3 C -12,4 C 31,9 km/h (5 Bft)
02.02.2009 17:00 1,0 C 84 % 1005,5 hPa 0,0 l/m 33,0 km/h (5 Bft) O 100 0 min 0 W/m -1,4 C -12,8 C 33,0 km/h (5 Bft)
02.02.2009 17:05 1,0 C 84 % 1005,5 hPa 0,0 l/m 28,2 km/h (5 Bft) O-SO 105 0 min 0 W/m -1,4 C -11,4 C 28,2 km/h (5 Bft)
02.02.2009 17:10 1,1 C 84 % 1005,5 hPa 0,0 l/m 32,2 km/h (5 Bft) O-SO 110 0 min 0 W/m -1,3 C -12,5 C 32,2 km/h (5 Bft)
02.02.2009 17:15 1,1 C 84 % 1005,5 hPa 0,0 l/m 32,2 km/h (5 Bft) O-SO 110 0 min 0 W/m -1,3 C -12,5 C 32,2 km/h (5 Bft)
02.02.2009 17:20 1,1 C 84 % 1005,5 hPa 0,0 l/m 33,4 km/h (5 Bft) O-SO 110 0 min 0 W/m -1,3 C -12,8 C 33,4 km/h (5 Bft)
02.02.2009 17:25 1,1 C 84 % 1005,5 hPa 0,0 l/m 28,8 km/h (5 Bft) O 95 0 min 0 W/m -1,3 C -11,5 C 28,8 km/h (5 Bft)
02.02.2009 17:30 1,1 C 84 % 1005,5 hPa 0,0 l/m 33,5 km/h (5 Bft) O 95 0 min 0 W/m -1,3 C -12,8 C 33,5 km/h (5 Bft)
02.02.2009 17:35 1,0 C 84 % 1005,5 hPa 0,0 l/m 29,3 km/h (5 Bft) O-SO 120 0 min 0 W/m -1,4 C -11,8 C 29,3 km/h (5 Bft)
02.02.2009 17:40 1,0 C 84 % 1005,5 hPa 0,0 l/m 34,7 km/h (5 Bft) SO 125 0 min 0 W/m -1,4 C -13,3 C 34,7 km/h (5 Bft)
02.02.2009 17:45 0,9 C 84 % 1005,5 hPa 0,0 l/m 30,9 km/h (5 Bft) O 100 0 min 0 W/m -1,5 C -12,4 C 30,9 km/h (5 Bft)
02.02.2009 17:50 0,9 C 85 % 1005,5 hPa 0,0 l/m 30,9 km/h (5 Bft) O-SO 105 0 min 0 W/m -1,3 C -12,4 C 30,9 km/h (5 Bft)
02.02.2009 17:55 0,9 C 85 % 1005,5 hPa 0,0 l/m 29,6 km/h (5 Bft) O-SO 110 0 min 0 W/m -1,3 C -12,0 C 29,6 km/h (5 Bft)
02.02.2009 18:00 0,9 C 85 % 1005,5 hPa 0,0 l/m 31,1 km/h (5 Bft) O-SO 110 0 min 0 W/m -1,3 C -12,5 C 31,1 km/h (5 Bft)
02.02.2009 18:05 0,9 C 85 % 1005,5 hPa 0,0 l/m 30,7 km/h (5 Bft) O-SO 115 0 min 0 W/m -1,3 C -12,3 C 30,7 km/h (5 Bft)
02.02.2009 18:11 0,9 C 86 % 1005,5 hPa 0,0 l/m 24,6 km/h (4 Bft) O 100 0 min 0 W/m -1,2 C -10,4 C 24,6 km/h (4 Bft)
02.02.2009 18:15 0,9 C 86 % 1005,5 hPa 0,0 l/m 33,4 km/h (5 Bft) O-SO 110 0 min 0 W/m -1,2 C -13,1 C 33,4 km/h (5 Bft)
02.02.2009 18:20 0,9 C 86 % 1005,5 hPa 0,0 l/m 16,9 km/h (3 Bft) O 95 0 min 0 W/m -1,2 C -6,9 C 16,9 km/h (3 Bft)
02.02.2009 18:25 0,9 C 86 % 1005,5 hPa 0,0 l/m 30,3 km/h (5 Bft) O 90 0 min 0 W/m -1,2 C -12,2 C 30,3 km/h (5 Bft)
02.02.2009 18:30 0,9 C 86 % 1005,5 hPa 0,0 l/m 29,3 km/h (5 Bft) O-SO 105 0 min 0 W/m -1,2 C -11,9 C 29,3 km/h (5 Bft)
02.02.2009 18:35 0,9 C 86 % 1005,5 hPa 0,0 l/m 26,0 km/h (4 Bft) O-SO 105 0 min 0 W/m -1,2 C -10,9 C 26,0 km/h (4 Bft)
02.02.2009 18:40 0,9 C 85 % 1005,5 hPa 0,0 l/m 32,2 km/h (5 Bft) O 90 0 min 0 W/m -1,3 C -12,8 C 32,2 km/h (5 Bft)
02.02.2009 18:45 0,9 C 85 % 1005,5 hPa 0,0 l/m 28,2 km/h (5 Bft) O-SO 105 0 min 0 W/m -1,3 C -11,6 C 28,2 km/h (5 Bft)
02.02.2009 18:50 1,0 C 85 % 1005,5 hPa 0,0 l/m 29,3 km/h (5 Bft) O 100 0 min 0 W/m -1,2 C -11,8 C 29,3 km/h (5 Bft)
02.02.2009 18:55 1,0 C 85 % 1005,5 hPa 0,0 l/m 29,4 km/h (5 Bft) O-SO 105 0 min 0 W/m -1,2 C -11,8 C 29,4 km/h (5 Bft)
02.02.2009 19:00 1,0 C 85 % 1005,5 hPa 0,0 l/m 27,6 km/h (5 Bft) O-SO 110 0 min 0 W/m -1,2 C -11,3 C 27,6 km/h (5 Bft)
02.02.2009 19:05 1,0 C 85 % 1005,5 hPa 0,0 l/m 26,7 km/h (4 Bft) O 95 0 min 0 W/m -1,2 C -11,0 C 26,7 km/h (4 Bft)
02.02.2009 19:10 1,0 C 85 % 1005,5 hPa 0,0 l/m 25,2 km/h (4 Bft) O 90 0 min 0 W/m -1,2 C -10,4 C 25,2 km/h (4 Bft)
02.02.2009 19:15 0,9 C 85 % 1005,5 hPa 0,0 l/m 33,1 km/h (5 Bft) O-SO 105 0 min 0 W/m -1,3 C -13,0 C 33,1 km/h (5 Bft)
02.02.2009 19:20 1,0 C 85 % 1005,5 hPa 0,0 l/m 27,6 km/h (5 Bft) O 100 0 min 0 W/m -1,2 C -11,3 C 27,6 km/h (5 Bft)
02.02.2009 19:25 0,9 C 85 % 1005,5 hPa 0,0 l/m 29,7 km/h (5 Bft) O 95 0 min 0 W/m -1,3 C -12,1 C 29,7 km/h (5 Bft)
02.02.2009 19:30 0,9 C 85 % 1004,5 hPa 0,0 l/m 27,8 km/h (5 Bft) O 85 0 min 0 W/m -1,3 C -11,5 C 27,8 km/h (5 Bft)
02.02.2009 19:35 0,9 C 85 % 1004,5 hPa 0,0 l/m 27,3 km/h (5 Bft) O 100 0 min 0 W/m -1,3 C -11,3 C 27,3 km/h (5 Bft)
02.02.2009 19:40 0,9 C 85 % 1004,5 hPa 0,0 l/m 31,2 km/h (5 Bft) O 100 0 min 0 W/m -1,3 C -12,5 C 31,2 km/h (5 Bft)
02.02.2009 19:45 0,9 C 85 % 1004,5 hPa 0,0 l/m 31,1 km/h (5 Bft) O 95 0 min 0 W/m -1,3 C -12,5 C 31,1 km/h (5 Bft)
02.02.2009 19:50 0,9 C 85 % 1004,5 hPa 0,0 l/m 29,6 km/h (5 Bft) O-SO 105 0 min 0 W/m -1,3 C -12,0 C 29,6 km/h (5 Bft)
02.02.2009 19:55 1,0 C 85 % 1004,5 hPa 0,0 l/m 27,3 km/h (5 Bft) O-SO 105 0 min 0 W/m -1,2 C -11,2 C 27,3 km/h (5 Bft)
02.02.2009 20:00 0,9 C 85 % 1004,5 hPa 0,0 l/m 26,9 km/h (4 Bft) O 100 0 min 0 W/m -1,3 C -11,2 C 26,9 km/h (4 Bft)
02.02.2009 20:05 0,9 C 85 % 1004,5 hPa 0,0 l/m 28,6 km/h (5 Bft) O-SO 115 0 min 0 W/m -1,3 C -11,7 C 28,6 km/h (5 Bft)
02.02.2009 20:10 0,9 C 85 % 1004,5 hPa 0,0 l/m 30,1 km/h (5 Bft) O 95 0 min 0 W/m -1,3 C -12,2 C 30,1 km/h (5 Bft)
02.02.2009 20:15 0,9 C 85 % 1004,5 hPa 0,0 l/m 29,6 km/h (5 Bft) O 85 0 min 0 W/m -1,3 C -12,0 C 29,6 km/h (5 Bft)
02.02.2009 20:20 0,9 C 85 % 1004,5 hPa 0,0 l/m 30,0 km/h (5 Bft) O 100 0 min 0 W/m -1,3 C -12,1 C 30,0 km/h (5 Bft)
02.02.2009 20:25 0,9 C 85 % 1004,5 hPa 0,0 l/m 32,6 km/h (5 Bft) O 95 0 min 0 W/m -1,3 C -12,9 C 32,6 km/h (5 Bft)
02.02.2009 20:30 0,9 C 85 % 1004,5 hPa 0,0 l/m 27,3 km/h (5 Bft) O-SO 105 0 min 0 W/m -1,3 C -11,3 C 27,3 km/h (5 Bft)
02.02.2009 20:35 0,9 C 85 % 1004,5 hPa 0,0 l/m 31,7 km/h (5 Bft) O-SO 105 0 min 0 W/m -1,3 C -12,6 C 31,7 km/h (5 Bft)
02.02.2009 20:40 0,9 C 85 % 1004,5 hPa 0,0 l/m 30,1 km/h (5 Bft) O-SO 105 0 min 0 W/m -1,3 C -12,2 C 30,1 km/h (5 Bft)
02.02.2009 20:45 0,9 C 85 % 1004,5 hPa 0,0 l/m 31,7 km/h (5 Bft) O-SO 115 0 min 0 W/m -1,3 C -12,6 C 31,7 km/h (5 Bft)
02.02.2009 20:50 0,9 C 85 % 1004,5 hPa 0,0 l/m 22,0 km/h (4 Bft) O 100 0 min 0 W/m -1,3 C -9,3 C 22,0 km/h (4 Bft)
02.02.2009 20:55 0,9 C 85 % 1004,5 hPa 0,0 l/m 40,0 km/h (6 Bft) O 95 0 min 0 W/m -1,3 C -14,6 C 40,0 km/h (6 Bft)
02.02.2009 21:00 0,9 C 85 % 1004,5 hPa 0,0 l/m 32,9 km/h (5 Bft) O-SO 120 0 min 0 W/m -1,3 C -13,0 C 32,9 km/h (5 Bft)
02.02.2009 21:05 0,9 C 85 % 1004,5 hPa 0,0 l/m 39,6 km/h (6 Bft) SO 125 0 min 0 W/m -1,3 C -14,5 C 39,6 km/h (6 Bft)
02.02.2009 21:10 0,9 C 85 % 1004,5 hPa 0,0 l/m 35,0 km/h (5 Bft) O-SO 105 0 min 0 W/m -1,3 C -13,5 C 35,0 km/h (5 Bft)
02.02.2009 21:15 0,9 C 85 % 1004,5 hPa 0,0 l/m 25,6 km/h (4 Bft) O-SO 120 0 min 0 W/m -1,3 C -10,7 C 25,6 km/h (4 Bft)
02.02.2009 21:21 0,9 C 85 % 1004,5 hPa 0,0 l/m 26,1 km/h (4 Bft) O-SO 115 0 min 0 W/m -1,3 C -10,9 C 26,1 km/h (4 Bft)
02.02.2009 21:25 0,9 C 86 % 1004,5 hPa 0,0 l/m 28,1 km/h (5 Bft) O 100 0 min 0 W/m -1,2 C -11,6 C 28,1 km/h (5 Bft)
02.02.2009 21:30 0,9 C 86 % 1003,5 hPa 0,0 l/m 28,9 km/h (5 Bft) O 95 0 min 0 W/m -1,2 C -11,8 C 28,9 km/h (5 Bft)
02.02.2009 21:35 0,9 C 86 % 1003,5 hPa 0,0 l/m 24,6 km/h (4 Bft) O 95 0 min 0 W/m -1,2 C -10,4 C 24,6 km/h (4 Bft)
02.02.2009 21:40 0,9 C 86 % 1003,5 hPa 0,0 l/m 26,7 km/h (4 Bft) O-SO 105 0 min 0 W/m -1,2 C -11,1 C 26,7 km/h (4 Bft)
02.02.2009 21:45 0,9 C 86 % 1003,5 hPa 0,0 l/m 25,8 km/h (4 Bft) O 100 0 min 0 W/m -1,2 C -10,8 C 25,8 km/h (4 Bft)
02.02.2009 21:50 0,9 C 86 % 1003,5 hPa 0,0 l/m 25,6 km/h (4 Bft) O 95 0 min 0 W/m -1,2 C -10,7 C 25,6 km/h (4 Bft)
02.02.2009 21:55 0,9 C 86 % 1003,5 hPa 0,0 l/m 23,3 km/h (4 Bft) O 90 0 min 0 W/m -1,2 C -9,9 C 23,3 km/h (4 Bft)
02.02.2009 22:00 0,9 C 86 % 1003,5 hPa 0,0 l/m 24,3 km/h (4 Bft) O-SO 105 0 min 0 W/m -1,2 C -10,2 C 24,3 km/h (4 Bft)
02.02.2009 22:05 0,9 C 86 % 1003,5 hPa 0,0 l/m 32,7 km/h (5 Bft) O 100 0 min 0 W/m -1,2 C -12,9 C 32,7 km/h (5 Bft)
02.02.2009 22:10 0,9 C 86 % 1003,5 hPa 0,0 l/m 23,0 km/h (4 Bft) O 95 0 min 0 W/m -1,2 C -9,7 C 23,0 km/h (4 Bft)
02.02.2009 22:15 0,9 C 86 % 1003,5 hPa 0,0 l/m 34,8 km/h (5 Bft) O 85 0 min 0 W/m -1,2 C -13,4 C 34,8 km/h (5 Bft)
02.02.2009 22:20 0,9 C 86 % 1003,5 hPa 0,0 l/m 39,3 km/h (6 Bft) O-SO 105 0 min 0 W/m -1,2 C -14,5 C 39,3 km/h (6 Bft)
02.02.2009 22:25 0,9 C 86 % 1003,5 hPa 0,0 l/m 26,3 km/h (4 Bft) O-SO 115 0 min 0 W/m -1,2 C -11,0 C 26,3 km/h (4 Bft)
02.02.2009 22:30 0,9 C 86 % 1003,5 hPa 0,0 l/m 23,5 km/h (4 Bft) O-NO 65 0 min 0 W/m -1,2 C -9,9 C 23,5 km/h (4 Bft)
02.02.2009 22:35 0,9 C 86 % 1003,5 hPa 0,0 l/m 23,2 km/h (4 Bft) O-SO 115 0 min 0 W/m -1,2 C -9,8 C 23,2 km/h (4 Bft)
02.02.2009 22:40 0,9 C 86 % 1003,5 hPa 0,0 l/m 25,8 km/h (4 Bft) O 95 0 min 0 W/m -1,2 C -10,8 C 25,8 km/h (4 Bft)
02.02.2009 22:45 0,9 C 87 % 1003,5 hPa 0,0 l/m 27,3 km/h (5 Bft) O-SO 115 0 min 0 W/m -1,0 C -11,3 C 27,3 km/h (5 Bft)
02.02.2009 22:50 0,9 C 87 % 1002,5 hPa 0,0 l/m 31,6 km/h (5 Bft) O 95 0 min 0 W/m -1,0 C -12,6 C 31,6 km/h (5 Bft)
02.02.2009 22:55 0,9 C 86 % 1002,5 hPa 0,0 l/m 29,1 km/h (5 Bft) O-SO 110 0 min 0 W/m -1,2 C -11,9 C 29,1 km/h (5 Bft)
02.02.2009 23:00 0,9 C 86 % 1003,5 hPa 0,0 l/m 34,0 km/h (5 Bft) O 95 0 min 0 W/m -1,2 C -13,2 C 34,0 km/h (5 Bft)
02.02.2009 23:05 0,9 C 86 % 1003,5 hPa 0,0 l/m 36,4 km/h (5 Bft) O 90 0 min 0 W/m -1,2 C -13,8 C 36,4 km/h (5 Bft)
02.02.2009 23:10 0,9 C 87 % 1003,5 hPa 0,0 l/m 25,3 km/h (4 Bft) O-SO 120 0 min 0 W/m -1,0 C -10,6 C 25,3 km/h (4 Bft)
02.02.2009 23:15 0,9 C 87 % 1003,5 hPa 0,0 l/m 21,1 km/h (4 Bft) O-SO 115 0 min 0 W/m -1,0 C -9,0 C 21,1 km/h (4 Bft)
02.02.2009 23:20 0,9 C 87 % 1003,5 hPa 0,0 l/m 23,3 km/h (4 Bft) O 100 0 min 0 W/m -1,0 C -9,9 C 23,3 km/h (4 Bft)
02.02.2009 23:25 0,9 C 87 % 1003,5 hPa 0,0 l/m 26,4 km/h (4 Bft) O-SO 120 0 min 0 W/m -1,0 C -11,0 C 26,4 km/h (4 Bft)
02.02.2009 23:30 0,9 C 87 % 1003,5 hPa 0,0 l/m 22,4 km/h (4 Bft) O-SO 105 0 min 0 W/m -1,0 C -9,5 C 22,4 km/h (4 Bft)
02.02.2009 23:35 0,9 C 87 % 1003,5 hPa 0,0 l/m 29,1 km/h (5 Bft) O 100 0 min 0 W/m -1,0 C -11,9 C 29,1 km/h (5 Bft)
02.02.2009 23:40 0,9 C 87 % 1003,5 hPa 0,0 l/m 24,2 km/h (4 Bft) O 80 0 min 0 W/m -1,0 C -10,2 C 24,2 km/h (4 Bft)
02.02.2009 23:45 0,9 C 87 % 1003,5 hPa 0,0 l/m 25,7 km/h (4 Bft) O-SO 105 0 min 0 W/m -1,0 C -10,7 C 25,7 km/h (4 Bft)
02.02.2009 23:50 0,9 C 87 % 1003,5 hPa 0,0 l/m 31,1 km/h (5 Bft) O-SO 110 0 min 0 W/m -1,0 C -12,5 C 31,1 km/h (5 Bft)
02.02.2009 23:55 0,9 C 87 % 1003,5 hPa 0,0 l/m 23,5 km/h (4 Bft) SO 125 0 min 0 W/m -1,0 C -9,9 C 23,5 km/h (4 Bft)
_ Min-Zeit 00:00 02:10 22:50 - 09:15 - - - - 02:10 02:40 09:15
Minimum _ -0,9 C 79 % 1002,5 hPa - 15,9 km/h (3 Bft) - - - - -3,7 C -16,7 C 15,9 km/h (3 Bft)
_ Max-Zeit 15:26 22:45 00:00 00:00 16:30 - - 00:00 00:00 22:45 15:40 16:30
Maximum _ 1,4 C 87 % 1014,5 hPa 0,0 l/m 41,3 km/h
O (6 Bft)
- - 0 min 0 W/m -1,0 C -6,9 C 41,3 km/h
O (6 Bft)
Durchschnitt _ 0,3 C 83 % 1008,4 hPa #0,0 l/m 29,2 km/h (5 Bft) O - #0 min. 0 W/m -2,2 C -12,5 C 29,2 km/h (5 Bft)
copyright by Holger Just